Terminal Aerodrome Forecast
Issued by NWS

Home | Current Version | Previous Version | Graphics & Text | Print | Product List | Glossary On
Versions: 1 2 3 4 5 6 7 8 9 10 11 12 13
000
FTUS43 KBIS 250524
TAFDIK
TAF
KDIK 250524Z 2506/2606 14008KT P6SM SKC
     FM251400 15012G19KT P6SM FEW250=

USA.gov is the U.S. government's official web portal to all federal, state and local government web resources and services.